createdAt,value
2022-09-17T00:00:05.672Z,45.04
2022-09-17T00:00:32.140Z,44.90
2022-09-17T00:00:55.461Z,44.99
2022-09-17T00:01:24.251Z,45.10
2022-09-17T00:01:45.964Z,45.24
2022-09-17T00:02:07.575Z,45.12
2022-09-17T00:02:30.229Z,45.04
2022-09-17T00:02:55.587Z,44.80
2022-09-17T00:03:17.385Z,44.75
2022-09-17T00:03:38.977Z,44.89
2022-09-17T00:04:04.657Z,44.85
2022-09-17T00:04:27.912Z,44.79
2022-09-17T00:04:50.624Z,45.13
2022-09-17T00:05:13.737Z,45.25
2022-09-17T00:05:37.619Z,45.29
2022-09-17T00:05:59.657Z,45.30
2022-09-17T00:06:23.397Z,45.47
2022-09-17T00:06:45.207Z,45.38
2022-09-17T00:07:10.279Z,45.19
2022-09-17T00:07:31.925Z,44.90
2022-09-17T00:07:54.566Z,45.03
2022-09-17T00:08:16.239Z,45.00
2022-09-17T00:08:40.001Z,45.16
2022-09-17T00:09:02.800Z,45.41
2022-09-17T00:09:24.369Z,45.31
2022-09-17T00:09:48.392Z,45.25
2022-09-17T00:10:10.094Z,45.27
2022-09-17T00:10:33.173Z,45.13
2022-09-17T00:10:54.912Z,45.31
2022-09-17T00:11:18.511Z,45.46
2022-09-17T00:12:01.409Z,45.47
2022-09-17T00:12:23.888Z,45.05
2022-09-17T00:12:45.817Z,45.05
2022-09-17T00:13:08.313Z,45.17
2022-09-17T00:13:30.258Z,45.05
2022-09-17T00:13:54.092Z,45.04
2022-09-17T00:14:17.192Z,45.23
2022-09-17T00:14:40.381Z,45.44
2022-09-17T00:15:02.393Z,45.32
2022-09-17T00:15:27.273Z,45.28
2022-09-17T00:15:48.885Z,45.18
2022-09-17T00:16:11.248Z,45.06
2022-09-17T00:16:36.920Z,45.03
2022-09-17T00:17:01.891Z,45.28
2022-09-17T00:17:24.693Z,45.26
2022-09-17T00:17:46.246Z,45.06
2022-09-17T00:18:07.935Z,45.34
2022-09-17T00:18:29.661Z,45.26
2022-09-17T00:18:52.282Z,45.39
2022-09-17T00:19:18.423Z,45.41
2022-09-17T00:19:40.048Z,45.60
2022-09-17T00:20:03.147Z,45.87
2022-09-17T00:20:25.105Z,45.88
2022-09-17T00:20:47.394Z,45.88
2022-09-17T00:21:17.091Z,45.88
2022-09-17T00:21:41.861Z,45.88
2022-09-17T00:22:03.466Z,45.86
2022-09-17T00:22:25.148Z,45.75
2022-09-17T00:22:47.727Z,45.52
2022-09-17T00:23:10.876Z,45.62
2022-09-17T00:23:32.479Z,45.67
2022-09-17T00:23:55.807Z,45.53
2022-09-17T00:24:18.859Z,45.40
2022-09-17T00:24:41.589Z,45.50
2022-09-17T00:25:03.670Z,45.50
2022-09-17T00:25:25.592Z,45.75
2022-09-17T00:25:47.160Z,45.41
2022-09-17T00:26:08.765Z,45.61
2022-09-17T00:26:31.983Z,45.51
2022-09-17T00:26:54.834Z,45.38
2022-09-17T00:27:19.232Z,45.34
2022-09-17T00:27:40.850Z,45.57
2022-09-17T00:28:03.649Z,45.45
2022-09-17T00:28:25.753Z,45.45
2022-09-17T00:28:50.798Z,45.54
2022-09-17T00:29:12.396Z,45.13
2022-09-17T00:29:34.002Z,45.09
2022-09-17T00:29:55.545Z,45.18
2022-09-17T00:30:18.096Z,45.06
2022-09-17T00:30:40.720Z,45.10
2022-09-17T00:31:07.100Z,44.91
2022-09-17T00:31:30.214Z,45.08
2022-09-17T00:31:52.773Z,45.01
2022-09-17T00:32:14.507Z,44.97
2022-09-17T00:32:36.328Z,45.15
2022-09-17T00:32:58.383Z,45.46
2022-09-17T00:33:21.056Z,45.42
2022-09-17T00:34:40.311Z,45.72
2022-09-17T00:35:01.936Z,45.30
2022-09-17T00:35:23.719Z,45.31
2022-09-17T00:35:45.484Z,45.20
2022-09-17T00:36:08.685Z,45.43
2022-09-17T00:36:31.105Z,45.44
2022-09-17T00:36:52.681Z,45.64
2022-09-17T00:37:15.435Z,45.30
2022-09-17T00:37:37.977Z,45.51
2022-09-17T00:37:59.831Z,45.54
2022-09-17T00:38:21.372Z,45.28
2022-09-17T00:38:43.337Z,45.69
2022-09-17T00:39:07.713Z,45.25
2022-09-17T00:39:29.289Z,45.09
2022-09-17T00:39:51.263Z,45.14
2022-09-17T00:40:12.935Z,45.06
2022-09-17T00:40:35.774Z,45.03
2022-09-17T00:40:57.423Z,45.06
2022-09-17T00:41:19.880Z,45.06
2022-09-17T00:41:43.617Z,45.13
2022-09-17T00:42:23.474Z,45.46
2022-09-17T00:42:45.267Z,45.57
2022-09-17T00:43:11.584Z,45.08
2022-09-17T00:43:40.000Z,45.09
2022-09-17T00:44:24.306Z,45.35
2022-09-17T00:44:49.497Z,45.35
2022-09-17T00:45:12.057Z,45.28
2022-09-17T00:45:33.675Z,45.60
2022-09-17T00:45:56.616Z,45.55
2022-09-17T00:46:25.372Z,45.43
2022-09-17T00:46:48.456Z,45.50
2022-09-17T00:47:16.583Z,45.68
2022-09-17T00:47:42.008Z,45.38
2022-09-17T00:48:06.216Z,45.25
2022-09-17T00:48:27.852Z,45.19
2022-09-17T00:48:52.034Z,45.16
2022-09-17T00:49:17.025Z,44.94
2022-09-17T00:49:40.047Z,45.06
2022-09-17T00:50:06.616Z,45.23
2022-09-17T00:50:31.626Z,45.29
2022-09-17T00:50:55.076Z,45.40
2022-09-17T00:51:20.960Z,45.17
2022-09-17T00:51:47.708Z,45.60
2022-09-17T00:52:15.328Z,45.44
2022-09-17T00:52:41.676Z,45.30
2022-09-17T00:53:07.704Z,45.45
2022-09-17T00:53:30.596Z,45.50
2022-09-17T00:53:53.234Z,45.43
2022-09-17T00:54:15.033Z,45.58
2022-09-17T00:54:38.604Z,45.63
2022-09-17T00:55:07.907Z,45.98
2022-09-17T00:55:34.396Z,45.71
2022-09-17T00:56:01.896Z,45.53
2022-09-17T00:56:28.667Z,45.72
2022-09-17T00:56:51.542Z,45.63
2022-09-17T00:57:14.197Z,45.65
2022-09-17T00:57:36.503Z,45.17
2022-09-17T00:58:01.045Z,45.40
2022-09-17T00:58:24.308Z,45.39
2022-09-17T00:58:47.635Z,45.19
2022-09-17T00:59:10.368Z,45.20
2022-09-17T00:59:32.556Z,45.29
2022-09-17T00:59:54.402Z,45.53
2022-09-17T01:00:18.094Z,45.61
2022-09-17T01:00:40.788Z,45.60
2022-09-17T01:01:02.491Z,45.52
2022-09-17T01:01:24.253Z,45.37
2022-09-17T01:01:46.436Z,45.29
2022-09-17T01:02:11.361Z,45.13
2022-09-17T01:02:48.070Z,45.69
2022-09-17T01:03:09.706Z,45.55
2022-09-17T01:03:33.158Z,45.87
2022-09-17T01:03:54.729Z,45.86
2022-09-17T01:04:17.088Z,45.68
2022-09-17T01:04:39.997Z,45.60
2022-09-17T01:05:01.757Z,45.69
2022-09-17T01:05:39.930Z,45.95
2022-09-17T01:06:10.642Z,46.11
2022-09-17T01:06:36.766Z,45.55
2022-09-17T01:07:07.464Z,45.47
2022-09-17T01:08:07.656Z,45.37
2022-09-17T01:08:39.276Z,45.27
2022-09-17T01:09:14.179Z,45.30
2022-09-17T01:09:46.223Z,45.43
2022-09-17T01:10:21.139Z,45.79
2022-09-17T01:11:00.060Z,45.66
2022-09-17T01:11:47.452Z,45.65
2022-09-17T01:12:23.257Z,45.99
2022-09-17T01:12:59.342Z,45.68
2022-09-17T01:13:35.456Z,45.59
2022-09-17T01:14:11.019Z,45.67
2022-09-17T01:14:45.331Z,45.76
2022-09-17T01:15:23.111Z,45.58
2022-09-17T01:15:54.792Z,45.74
2022-09-17T01:16:20.595Z,45.67
2022-09-17T01:16:57.037Z,46.15
2022-09-17T01:17:27.325Z,46.18
2022-09-17T01:17:59.558Z,46.26
2022-09-17T01:18:33.342Z,46.11
2022-09-17T01:19:08.923Z,45.74
2022-09-17T01:20:07.428Z,45.88
2022-09-17T01:21:05.824Z,46.05
2022-09-17T01:21:39.754Z,46.04
2022-09-17T01:22:07.291Z,46.36
2022-09-17T01:22:34.024Z,46.29
2022-09-17T01:23:16.108Z,46.07
2022-09-17T01:24:12.772Z,45.57
2022-09-17T01:24:51.263Z,45.58
2022-09-17T01:25:24.847Z,45.52
2022-09-17T01:25:59.436Z,45.54
2022-09-17T01:26:48.873Z,45.80
2022-09-17T01:27:46.260Z,46.08
2022-09-17T01:28:40.462Z,45.79
2022-09-17T01:29:13.804Z,45.93
2022-09-17T01:29:54.650Z,46.35
2022-09-17T01:31:02.221Z,45.99
2022-09-17T01:31:36.101Z,45.87
2022-09-17T01:32:07.347Z,45.87
2022-09-17T01:32:33.322Z,45.88
2022-09-17T01:33:02.761Z,45.76
2022-09-17T01:33:30.690Z,45.68
2022-09-17T01:34:01.559Z,46.12
2022-09-17T01:34:31.797Z,45.77
2022-09-17T01:34:59.448Z,45.94
2022-09-17T01:35:27.028Z,46.03
2022-09-17T01:35:53.274Z,46.29
2022-09-17T01:36:27.240Z,45.97
2022-09-17T01:36:59.976Z,45.91
2022-09-17T01:37:31.002Z,46.26
2022-09-17T01:38:01.097Z,46.43
2022-09-17T01:38:27.784Z,46.14
2022-09-17T01:38:54.731Z,46.07
2022-09-17T01:39:30.146Z,45.58
2022-09-17T01:40:00.746Z,45.72
2022-09-17T01:40:27.457Z,45.60
2022-09-17T01:40:55.798Z,45.55
2022-09-17T01:41:27.408Z,45.63
2022-09-17T01:41:56.492Z,45.63
2022-09-17T01:42:24.748Z,45.67
2022-09-17T01:42:51.986Z,45.72
2022-09-17T01:43:22.106Z,45.69
2022-09-17T01:43:52.422Z,45.64
2022-09-17T01:44:21.191Z,45.62
2022-09-17T01:44:50.793Z,45.58
2022-09-17T01:45:17.605Z,45.43
2022-09-17T01:45:44.443Z,45.59
2022-09-17T01:46:12.621Z,45.69
2022-09-17T01:46:40.607Z,45.93
2022-09-17T01:47:06.625Z,45.54
2022-09-17T01:47:35.540Z,45.74
2022-09-17T01:48:00.943Z,45.52
2022-09-17T01:48:27.455Z,45.55
2022-09-17T01:48:56.635Z,45.48
2022-09-17T01:49:25.307Z,45.78
2022-09-17T01:49:48.264Z,45.77
2022-09-17T01:50:13.509Z,45.68
2022-09-17T01:50:41.158Z,45.65
2022-09-17T01:51:08.413Z,45.71
2022-09-17T01:51:40.593Z,45.67
2022-09-17T01:52:03.471Z,45.91
2022-09-17T01:52:28.895Z,45.77
2022-09-17T01:52:53.401Z,45.96
2022-09-17T01:53:18.795Z,45.97
2022-09-17T01:53:45.997Z,45.83
2022-09-17T01:54:14.309Z,46.01
2022-09-17T01:54:42.563Z,46.03
2022-09-17T01:55:08.640Z,45.81
2022-09-17T01:55:35.812Z,45.80
2022-09-17T01:56:00.764Z,45.74
2022-09-17T01:56:27.084Z,45.88
2022-09-17T01:56:55.424Z,45.93
2022-09-17T01:57:23.532Z,45.74
2022-09-17T01:57:51.147Z,45.93
2022-09-17T01:58:17.403Z,45.64
2022-09-17T01:58:44.439Z,45.75
2022-09-17T01:59:12.731Z,45.87
2022-09-17T01:59:38.289Z,45.82
2022-09-17T02:00:04.155Z,45.78
2022-09-17T02:00:34.902Z,45.86
2022-09-17T02:01:01.511Z,46.00
2022-09-17T02:01:27.531Z,45.91
2022-09-17T02:01:53.851Z,45.91
2022-09-17T02:02:22.541Z,45.82
2022-09-17T02:02:48.794Z,46.04
2022-09-17T02:03:16.460Z,46.06
2022-09-17T02:03:42.224Z,46.01
2022-09-17T02:04:09.554Z,45.95
2022-09-17T02:04:38.298Z,45.83
2022-09-17T02:05:05.089Z,45.77
2022-09-17T02:05:30.788Z,46.17
2022-09-17T02:05:55.739Z,46.09
2022-09-17T02:06:23.627Z,46.33
2022-09-17T02:06:50.925Z,46.21
2022-09-17T02:07:20.436Z,45.99
2022-09-17T02:07:51.357Z,45.98
2022-09-17T02:08:18.717Z,45.86
2022-09-17T02:08:51.989Z,46.21
2022-09-17T02:09:17.173Z,46.30
2022-09-17T02:09:44.668Z,46.21
2022-09-17T02:10:11.345Z,46.45
2022-09-17T02:10:37.554Z,46.27
2022-09-17T02:11:05.718Z,46.30
2022-09-17T02:11:29.376Z,46.04
2022-09-17T02:11:55.500Z,45.89
2022-09-17T02:12:24.228Z,45.71
2022-09-17T02:12:52.226Z,45.92
2022-09-17T02:13:16.787Z,45.81
2022-09-17T02:13:43.937Z,45.84
2022-09-17T02:14:10.260Z,45.93
2022-09-17T02:14:39.344Z,46.04
2022-09-17T02:15:05.849Z,45.99
2022-09-17T02:15:33.225Z,46.06
2022-09-17T02:16:00.244Z,46.25
2022-09-17T02:16:27.052Z,46.21
2022-09-17T02:16:53.014Z,46.06
2022-09-17T02:17:22.429Z,45.88
2022-09-17T02:17:50.544Z,45.68
2022-09-17T02:18:23.192Z,45.74
2022-09-17T02:18:50.316Z,45.40
2022-09-17T02:19:19.094Z,45.82
2022-09-17T02:19:41.820Z,46.01
2022-09-17T02:20:04.963Z,46.15
2022-09-17T02:20:35.615Z,46.20
2022-09-17T02:21:08.277Z,46.05
2022-09-17T02:21:38.970Z,45.94
2022-09-17T02:22:03.414Z,45.84
2022-09-17T02:22:31.039Z,45.96
2022-09-17T02:22:57.794Z,45.94
2022-09-17T02:23:26.216Z,46.06
2022-09-17T02:23:57.484Z,45.95
2022-09-17T02:24:24.924Z,45.99
2022-09-17T02:24:54.245Z,46.14
2022-09-17T02:25:31.425Z,46.23
2022-09-17T02:26:01.634Z,46.33
2022-09-17T02:26:25.025Z,46.31
2022-09-17T02:26:54.647Z,46.04
2022-09-17T02:27:26.672Z,46.04
2022-09-17T02:27:56.780Z,46.15
2022-09-17T02:28:25.968Z,45.98
2022-09-17T02:28:51.425Z,46.04
2022-09-17T02:29:22.896Z,45.70
2022-09-17T02:29:44.973Z,45.92
2022-09-17T02:30:07.455Z,45.83
2022-09-17T02:30:29.863Z,45.67
2022-09-17T02:30:52.573Z,45.74
2022-09-17T02:31:14.527Z,45.78
2022-09-17T02:31:37.835Z,45.59
2022-09-17T02:31:59.853Z,45.63
2022-09-17T02:32:22.418Z,45.59
2022-09-17T02:32:44.290Z,45.48
2022-09-17T02:33:09.670Z,45.80
2022-09-17T02:33:34.791Z,45.72
2022-09-17T02:34:01.638Z,45.72
2022-09-17T02:34:27.467Z,45.74
2022-09-17T02:34:49.020Z,45.72
2022-09-17T02:35:13.905Z,45.85
2022-09-17T02:35:37.813Z,46.31
2022-09-17T02:36:00.833Z,46.47
2022-09-17T02:36:23.762Z,46.49
2022-09-17T02:36:46.805Z,46.33
2022-09-17T02:37:08.984Z,46.25
2022-09-17T02:37:31.543Z,45.99
2022-09-17T02:37:53.247Z,46.06
2022-09-17T02:38:22.267Z,46.10
2022-09-17T02:38:45.245Z,46.18
2022-09-17T02:39:09.882Z,46.20
2022-09-17T02:39:31.737Z,46.10
2022-09-17T02:39:53.711Z,45.86
2022-09-17T02:40:18.501Z,46.22
2022-09-17T02:40:48.793Z,46.09
2022-09-17T02:41:17.801Z,45.75
2022-09-17T02:41:49.193Z,45.91
2022-09-17T02:42:22.443Z,45.95
2022-09-17T02:42:59.281Z,45.98
2022-09-17T02:43:28.486Z,45.87
2022-09-17T02:43:55.322Z,46.05
2022-09-17T02:44:27.883Z,46.17
2022-09-17T02:44:58.083Z,46.36
2022-09-17T02:45:33.895Z,46.39
2022-09-17T02:46:10.736Z,46.31
2022-09-17T02:46:57.350Z,46.30
2022-09-17T02:47:52.362Z,46.34
2022-09-17T02:48:27.732Z,46.35
2022-09-17T02:49:14.991Z,46.28
2022-09-17T02:49:55.161Z,46.27
2022-09-17T02:50:44.892Z,46.28
2022-09-17T02:51:22.659Z,46.41
2022-09-17T02:52:19.283Z,46.48
2022-09-17T02:52:54.894Z,47.12
2022-09-17T02:53:31.133Z,47.06
2022-09-17T02:54:05.165Z,47.10
2022-09-17T02:54:36.284Z,46.95
2022-09-17T02:55:08.836Z,46.85
2022-09-17T02:55:38.271Z,47.22
2022-09-17T02:56:08.785Z,47.29
2022-09-17T02:56:46.030Z,47.00
2022-09-17T02:57:16.373Z,47.31
2022-09-17T02:57:41.604Z,47.02
2022-09-17T02:58:15.394Z,46.96
2022-09-17T02:58:44.287Z,46.71
2022-09-17T02:59:16.794Z,47.16
2022-09-17T02:59:47.659Z,46.98
2022-09-17T03:00:14.479Z,46.95
2022-09-17T03:00:36.532Z,47.24
2022-09-17T03:01:04.449Z,47.08
2022-09-17T03:01:40.120Z,46.89
2022-09-17T03:02:09.061Z,46.78
2022-09-17T03:02:35.713Z,46.85
2022-09-17T03:03:01.787Z,46.72
2022-09-17T03:03:32.177Z,46.86
2022-09-17T03:03:56.299Z,46.80
2022-09-17T03:04:22.402Z,46.86
2022-09-17T03:04:46.852Z,47.00
2022-09-17T03:05:09.530Z,46.88
2022-09-17T03:05:31.962Z,46.91
2022-09-17T03:05:56.208Z,46.91
2022-09-17T03:06:18.731Z,47.03
2022-09-17T03:06:40.714Z,46.85
2022-09-17T03:07:08.952Z,46.91
2022-09-17T03:07:32.533Z,47.15
2022-09-17T03:07:55.502Z,47.01
2022-09-17T03:08:18.697Z,46.76
2022-09-17T03:08:42.707Z,46.80
2022-09-17T03:09:05.459Z,46.84
2022-09-17T03:09:27.384Z,47.04
2022-09-17T03:09:50.194Z,47.42
2022-09-17T03:10:12.827Z,47.38
2022-09-17T03:10:35.628Z,47.26
2022-09-17T03:10:57.339Z,47.31
2022-09-17T03:11:18.952Z,47.40
2022-09-17T03:11:41.544Z,47.08
2022-09-17T03:12:03.642Z,47.45
2022-09-17T03:12:26.767Z,47.59
2022-09-17T03:12:48.417Z,47.27
2022-09-17T03:13:10.185Z,46.97
2022-09-17T03:13:32.327Z,47.10
2022-09-17T03:13:54.913Z,47.28
2022-09-17T03:14:18.586Z,47.30
2022-09-17T03:14:41.501Z,47.85
2022-09-17T03:15:06.856Z,48.10
2022-09-17T03:15:32.072Z,47.72
2022-09-17T03:15:54.102Z,47.74
2022-09-17T03:16:18.355Z,47.72
2022-09-17T03:16:40.034Z,47.85
2022-09-17T03:17:04.284Z,47.83
2022-09-17T03:17:28.454Z,47.99
2022-09-17T03:17:53.538Z,47.91
2022-09-17T03:18:16.230Z,47.70
2022-09-17T03:18:37.892Z,47.71
2022-09-17T03:18:59.496Z,47.55
2022-09-17T03:19:22.021Z,47.25
2022-09-17T03:19:43.674Z,47.81
2022-09-17T03:20:07.286Z,48.06
2022-09-17T03:20:28.901Z,47.90
2022-09-17T03:20:51.476Z,47.71
2022-09-17T03:21:13.015Z,48.08
2022-09-17T03:21:34.583Z,47.73
2022-09-17T03:21:56.168Z,47.68
2022-09-17T03:22:18.752Z,47.62
2022-09-17T03:22:40.309Z,47.46
2022-09-17T03:23:01.868Z,47.41
2022-09-17T03:23:23.420Z,47.26
2022-09-17T03:23:47.505Z,47.35
2022-09-17T03:24:10.878Z,47.38
2022-09-17T03:24:32.592Z,47.30
2022-09-17T03:24:54.268Z,47.65
2022-09-17T03:25:17.029Z,47.42
2022-09-17T03:25:38.615Z,47.49
2022-09-17T03:26:00.304Z,47.26
2022-09-17T03:26:21.865Z,47.06
2022-09-17T03:26:44.389Z,47.04
2022-09-17T03:27:05.985Z,46.96
2022-09-17T03:27:27.557Z,47.05
2022-09-17T03:27:49.147Z,46.84
2022-09-17T03:28:11.693Z,46.90
2022-09-17T03:28:33.245Z,46.83
2022-09-17T03:28:54.841Z,46.86
2022-09-17T03:29:16.488Z,46.94
2022-09-17T03:29:39.148Z,47.07
2022-09-17T03:30:00.716Z,46.97
2022-09-17T03:30:22.300Z,46.98
2022-09-17T03:30:44.412Z,47.07
2022-09-17T03:31:06.506Z,47.24
2022-09-17T03:31:29.269Z,47.29
2022-09-17T03:31:51.032Z,46.93
2022-09-17T03:32:14.030Z,47.15
2022-09-17T03:32:35.631Z,47.22
2022-09-17T03:32:58.227Z,47.29
2022-09-17T03:33:19.989Z,47.20
2022-09-17T03:33:41.777Z,47.14
2022-09-17T03:34:03.807Z,47.07
2022-09-17T03:34:29.458Z,46.60
2022-09-17T03:34:51.268Z,46.65
2022-09-17T03:35:13.216Z,46.52
2022-09-17T03:35:34.799Z,46.53
2022-09-17T03:35:57.376Z,46.57
2022-09-17T03:36:20.109Z,46.49
2022-09-17T03:36:41.683Z,46.66
2022-09-17T03:37:03.323Z,46.44
2022-09-17T03:37:24.957Z,46.60
2022-09-17T03:37:47.389Z,46.29
2022-09-17T03:38:09.920Z,46.76
2022-09-17T03:38:34.235Z,46.70
2022-09-17T03:38:56.093Z,46.76
2022-09-17T03:39:17.673Z,46.68
2022-09-17T03:39:40.207Z,46.72
2022-09-17T03:40:02.467Z,46.91
2022-09-17T03:40:24.174Z,47.03
2022-09-17T03:40:57.197Z,46.96
2022-09-17T03:41:18.999Z,46.99
2022-09-17T03:41:41.653Z,46.60
2022-09-17T03:42:03.635Z,46.57
2022-09-17T03:42:26.473Z,46.61
2022-09-17T03:42:48.416Z,46.79
2022-09-17T03:43:11.072Z,46.96
2022-09-17T03:43:32.973Z,46.88
2022-09-17T03:43:55.060Z,46.72
2022-09-17T03:44:19.271Z,46.73
2022-09-17T03:44:45.311Z,46.65
2022-09-17T03:45:08.283Z,46.91
2022-09-17T03:45:29.985Z,47.18
2022-09-17T03:45:51.590Z,47.20
2022-09-17T03:46:14.150Z,47.17
2022-09-17T03:46:35.858Z,46.88
2022-09-17T03:46:58.727Z,47.07
2022-09-17T03:47:21.911Z,46.59
2022-09-17T03:47:43.590Z,46.52
2022-09-17T03:48:06.191Z,46.69
2022-09-17T03:48:29.536Z,47.00
2022-09-17T03:48:51.831Z,46.78
2022-09-17T03:49:13.429Z,47.06
2022-09-17T03:49:35.031Z,46.88
2022-09-17T03:49:57.905Z,46.70
2022-09-17T03:50:20.388Z,46.52
2022-09-17T03:50:43.541Z,46.70
2022-09-17T03:51:05.450Z,46.80
2022-09-17T03:51:27.982Z,46.57
2022-09-17T03:51:49.976Z,46.65
2022-09-17T03:52:11.506Z,46.59
2022-09-17T03:52:33.365Z,46.78
2022-09-17T03:52:56.195Z,46.57
2022-09-17T03:53:17.767Z,46.47
2022-09-17T03:53:39.373Z,46.46
2022-09-17T03:54:01.017Z,46.47
2022-09-17T03:54:22.876Z,46.62
2022-09-17T03:54:45.446Z,46.77
2022-09-17T03:55:07.851Z,46.65
2022-09-17T03:55:29.390Z,46.73
2022-09-17T03:55:51.231Z,46.64
2022-09-17T03:56:14.429Z,46.82
2022-09-17T03:56:36.100Z,46.98
2022-09-17T03:56:59.115Z,47.26
2022-09-17T03:57:20.682Z,47.20
2022-09-17T03:57:43.417Z,46.85
2022-09-17T03:58:05.097Z,46.64
2022-09-17T03:58:28.616Z,46.58
2022-09-17T03:58:50.199Z,46.77
2022-09-17T03:59:15.448Z,46.98
2022-09-17T03:59:37.052Z,46.93
2022-09-17T03:59:58.720Z,46.66
2022-09-17T04:00:20.398Z,46.40
2022-09-17T04:00:42.966Z,46.60
2022-09-17T04:01:06.003Z,46.63
2022-09-17T04:01:29.255Z,47.00
2022-09-17T04:01:51.156Z,47.07
2022-09-17T04:02:12.990Z,46.72
2022-09-17T04:02:37.483Z,46.60
2022-09-17T04:02:59.172Z,46.48
2022-09-17T04:03:22.084Z,46.31
2022-09-17T04:03:45.221Z,46.35
2022-09-17T04:04:07.836Z,46.35
2022-09-17T04:04:29.445Z,46.14
2022-09-17T04:04:52.972Z,46.00
2022-09-17T04:05:14.687Z,46.34
2022-09-17T04:05:37.603Z,46.30
2022-09-17T04:05:59.741Z,46.40
2022-09-17T04:06:21.519Z,46.28
2022-09-17T04:06:44.472Z,46.43
2022-09-17T04:07:06.313Z,46.84
2022-09-17T04:07:29.114Z,47.07
2022-09-17T04:07:50.738Z,46.81
2022-09-17T04:08:12.553Z,46.67
2022-09-17T04:08:34.235Z,46.46
2022-09-17T04:08:56.985Z,46.59
2022-09-17T04:09:18.560Z,46.85
2022-09-17T04:09:40.139Z,46.55
2022-09-17T04:10:02.477Z,46.48
2022-09-17T04:10:25.671Z,46.28
2022-09-17T04:10:48.109Z,46.59
2022-09-17T04:11:10.057Z,46.50
2022-09-17T04:11:32.584Z,46.77
2022-09-17T04:11:54.153Z,46.91
2022-09-17T04:12:16.264Z,47.09
2022-09-17T04:12:38.133Z,47.01
2022-09-17T04:13:00.633Z,46.91
2022-09-17T04:13:22.208Z,46.75
2022-09-17T04:13:44.221Z,47.20
2022-09-17T04:14:05.904Z,47.36
2022-09-17T04:14:28.461Z,47.08
2022-09-17T04:14:50.038Z,46.88
2022-09-17T04:15:12.372Z,46.86
2022-09-17T04:15:33.942Z,46.76
2022-09-17T04:15:55.569Z,46.80
2022-09-17T04:16:18.232Z,46.92
2022-09-17T04:16:39.948Z,47.02
2022-09-17T04:17:01.560Z,46.98
2022-09-17T04:17:23.261Z,46.71
2022-09-17T04:17:46.202Z,46.60
2022-09-17T04:18:08.861Z,46.51
2022-09-17T04:18:30.894Z,46.40
2022-09-17T04:18:52.471Z,46.47
2022-09-17T04:19:14.100Z,46.88
2022-09-17T04:19:36.705Z,46.71
2022-09-17T04:19:58.427Z,46.70
2022-09-17T04:20:19.990Z,46.84
2022-09-17T04:20:42.425Z,46.59
2022-09-17T04:21:04.263Z,46.46
2022-09-17T04:21:26.780Z,46.47
2022-09-17T04:21:48.337Z,46.55
2022-09-17T04:22:10.399Z,46.50
2022-09-17T04:22:32.211Z,46.44
2022-09-17T04:22:54.568Z,46.45
2022-09-17T04:23:17.420Z,46.63
2022-09-17T04:23:39.338Z,46.37
2022-09-17T04:24:01.197Z,46.52
2022-09-17T04:24:22.776Z,46.88
2022-09-17T04:24:45.308Z,47.07
2022-09-17T04:25:08.791Z,46.84
2022-09-17T04:25:31.025Z,46.79
2022-09-17T04:25:52.687Z,46.60
2022-09-17T04:26:16.493Z,46.34
2022-09-17T04:26:38.078Z,46.24
2022-09-17T04:26:59.678Z,46.26
2022-09-17T04:27:21.353Z,46.34
2022-09-17T04:27:43.920Z,46.26
2022-09-17T04:28:06.840Z,46.30
2022-09-17T04:28:28.468Z,46.41
2022-09-17T04:28:50.037Z,46.40
2022-09-17T04:29:11.588Z,46.74
2022-09-17T04:29:34.121Z,46.93
2022-09-17T04:29:55.667Z,46.75
2022-09-17T04:30:17.839Z,46.75
2022-09-17T04:30:39.885Z,46.63
2022-09-17T04:31:02.522Z,46.31
2022-09-17T04:31:24.988Z,46.49
2022-09-17T04:31:47.060Z,46.88
2022-09-17T04:32:09.105Z,46.73
2022-09-17T04:32:34.549Z,47.10
2022-09-17T04:32:58.040Z,46.98
2022-09-17T04:33:19.949Z,46.73
2022-09-17T04:33:41.769Z,46.78
2022-09-17T04:34:03.392Z,46.90
2022-09-17T04:34:25.907Z,46.77
2022-09-17T04:34:47.453Z,46.52
2022-09-17T04:35:09.448Z,46.34
2022-09-17T04:35:31.004Z,46.34
2022-09-17T04:35:54.022Z,46.39
2022-09-17T04:36:15.834Z,46.29
2022-09-17T04:36:38.863Z,46.27
2022-09-17T04:37:00.485Z,46.35
2022-09-17T04:37:25.608Z,46.30
2022-09-17T04:37:53.323Z,46.44
2022-09-17T04:38:18.421Z,46.13
2022-09-17T04:38:41.005Z,46.30
2022-09-17T04:39:02.586Z,46.32
2022-09-17T04:39:24.345Z,46.50
2022-09-17T04:39:46.019Z,46.50
2022-09-17T04:40:09.296Z,46.40
2022-09-17T04:40:36.276Z,46.34
2022-09-17T04:40:57.946Z,46.17
2022-09-17T04:41:19.629Z,46.03
2022-09-17T04:41:41.169Z,46.01
2022-09-17T04:42:02.733Z,46.02
2022-09-17T04:42:25.409Z,46.40
2022-09-17T04:42:49.431Z,46.25
2022-09-17T04:43:11.575Z,46.27
2022-09-17T04:43:33.098Z,46.72
2022-09-17T04:43:55.760Z,46.70
2022-09-17T04:44:17.530Z,46.93
2022-09-17T04:44:39.080Z,46.93
2022-09-17T04:45:00.633Z,46.88
2022-09-17T04:45:22.349Z,46.44
2022-09-17T04:45:47.004Z,46.36
2022-09-17T04:46:08.645Z,46.00
2022-09-17T04:46:31.722Z,46.24
2022-09-17T04:46:54.324Z,46.22
2022-09-17T04:47:15.927Z,46.44
2022-09-17T04:47:39.620Z,46.56
2022-09-17T04:48:02.855Z,46.31
2022-09-17T04:48:25.729Z,46.10
2022-09-17T04:48:47.292Z,46.24
2022-09-17T04:49:08.906Z,46.09
2022-09-17T04:49:35.284Z,46.08
2022-09-17T04:49:56.868Z,46.04
2022-09-17T04:50:19.487Z,46.05
2022-09-17T04:50:41.037Z,46.07
2022-09-17T04:51:02.645Z,45.99
2022-09-17T04:51:24.296Z,46.24
2022-09-17T04:51:46.879Z,46.42
2022-09-17T04:52:08.427Z,46.45
2022-09-17T04:52:31.095Z,46.15
2022-09-17T04:52:52.869Z,46.28
2022-09-17T04:53:14.460Z,46.08
2022-09-17T04:53:36.983Z,46.46
2022-09-17T04:53:58.522Z,46.40
2022-09-17T04:54:20.244Z,46.03
2022-09-17T04:54:41.817Z,46.27
2022-09-17T04:55:04.401Z,46.04
2022-09-17T04:55:27.419Z,45.92
2022-09-17T04:55:48.978Z,46.02
2022-09-17T04:56:10.553Z,46.24
2022-09-17T04:56:32.103Z,46.14
2022-09-17T04:56:54.719Z,46.04
2022-09-17T04:57:16.536Z,46.17
2022-09-17T04:57:38.259Z,46.23
2022-09-17T04:58:00.852Z,46.29
2022-09-17T04:58:22.547Z,46.44
2022-09-17T04:58:44.188Z,46.27
2022-09-17T04:59:06.016Z,46.40
2022-09-17T04:59:27.642Z,46.39
2022-09-17T04:59:50.137Z,46.32
2022-09-17T05:00:14.244Z,46.14
2022-09-17T05:00:35.951Z,46.13
2022-09-17T05:00:57.602Z,45.93
2022-09-17T05:01:20.179Z,46.08
2022-09-17T05:01:43.227Z,46.18
2022-09-17T05:02:06.346Z,46.17
2022-09-17T05:02:28.079Z,46.15
2022-09-17T05:02:51.608Z,46.27
2022-09-17T05:03:15.597Z,46.05
2022-09-17T05:03:37.377Z,46.33
2022-09-17T05:03:59.021Z,46.22
2022-09-17T05:04:20.954Z,46.44
2022-09-17T05:04:42.530Z,46.26
2022-09-17T05:05:05.646Z,46.41
2022-09-17T05:05:27.214Z,46.50
2022-09-17T05:05:48.810Z,46.91
2022-09-17T05:06:10.677Z,46.95
2022-09-17T05:06:34.365Z,46.87
2022-09-17T05:06:57.249Z,46.72
2022-09-17T05:07:18.849Z,46.46
2022-09-17T05:07:41.116Z,46.51
2022-09-17T05:08:04.120Z,46.54
2022-09-17T05:08:25.775Z,46.45
2022-09-17T05:08:47.352Z,46.35
2022-09-17T05:09:08.990Z,46.31
2022-09-17T05:09:31.644Z,46.30
2022-09-17T05:09:53.747Z,46.25
2022-09-17T05:10:17.971Z,46.07
2022-09-17T05:10:40.767Z,46.12
2022-09-17T05:11:03.604Z,46.28
2022-09-17T05:11:26.569Z,46.17
2022-09-17T05:11:50.878Z,46.04
2022-09-17T05:12:15.344Z,46.03
2022-09-17T05:12:37.323Z,45.98
2022-09-17T05:12:59.871Z,46.01
2022-09-17T05:13:22.403Z,46.08
2022-09-17T05:13:43.969Z,46.14
2022-09-17T05:14:05.652Z,45.89
2022-09-17T05:14:28.177Z,46.29
2022-09-17T05:14:49.782Z,46.72
2022-09-17T05:15:11.660Z,46.82
2022-09-17T05:15:33.252Z,46.71
2022-09-17T05:15:56.587Z,46.64
2022-09-17T05:16:18.677Z,46.68
2022-09-17T05:16:40.676Z,46.63
2022-09-17T05:17:02.208Z,46.46
2022-09-17T05:17:24.720Z,46.31
2022-09-17T05:17:46.612Z,46.25
2022-09-17T05:18:08.173Z,46.00
2022-09-17T05:18:31.447Z,45.84
2022-09-17T05:18:54.284Z,45.89
2022-09-17T05:19:16.163Z,45.89
2022-09-17T05:19:37.725Z,46.15
2022-09-17T05:19:59.300Z,46.14
2022-09-17T05:20:22.263Z,46.28
2022-09-17T05:20:43.930Z,46.42
2022-09-17T05:21:06.104Z,46.64
2022-09-17T05:21:27.641Z,46.77
2022-09-17T05:21:49.219Z,46.57
2022-09-17T05:22:11.918Z,46.39
2022-09-17T05:22:33.469Z,46.17
2022-09-17T05:22:55.631Z,46.12
2022-09-17T05:23:17.696Z,46.05
2022-09-17T05:23:39.252Z,46.04
2022-09-17T05:24:02.347Z,46.02